^^
Paulen-Weather Station Historical Data
Daily Summary for July 14, 2022 Units:  Metric    English   Both
Daily Weekly Monthly Yearly Custom
  High: Low: Average:
Temperature: 17 °C 12 °C 13.4 °C
Dew Point: 11 °C 8 °C 9.9 °C
Humidity: 85% 68% 79%
Wind Speed: 25km/h 8km/h 15.6km/h
Wind Gust: 21km/h - -
Wind- - West
Pressure: 1013 hPa 1010.53 hPa -
Precipitation: 0 mm    
Historical Graphs
 
 
Tabular Data for July 14, 2022
Time Temperature Dew Point Pressure Wind Wind Speed Wind Gust Humidity Rainfall Rate (Hourly) solar
00:04 14 °C 11 °C 1012.87 hPa W 13 km/h 7 km/h 83% 0 mm 0 W/m2
00:09 14 °C 11 °C 1013 hPa WNW 13 km/h 10 km/h 83% 0 mm 0 W/m2
00:14 14 °C 11 °C 1013 hPa W 16 km/h 11 km/h 83% 0 mm 0 W/m2
00:19 14 °C 11 °C 1012.94 hPa WSW 12 km/h 9 km/h 83% 0 mm 0 W/m2
00:24 14 °C 11 °C 1012.9 hPa WSW 8 km/h 6 km/h 83% 0 mm 0 W/m2
00:29 14 °C 11 °C 1012.87 hPa W 12 km/h 11 km/h 83% 0 mm 0 W/m2
00:34 14 °C 11 °C 1012.84 hPa WNW 11 km/h 8 km/h 83% 0 mm 0 W/m2
00:39 14 °C 11 °C 1012.77 hPa W 15 km/h 10 km/h 83% 0 mm 0 W/m2
00:44 14 °C 11 °C 1012.73 hPa ENE 17 km/h 11 km/h 83% 0 mm 0 W/m2
00:49 13 °C 11 °C 1012.63 hPa W 11 km/h 9 km/h 83% 0 mm 0 W/m2
00:54 14 °C 11 °C 1012.56 hPa W 17 km/h 12 km/h 84% 0 mm 0 W/m2
00:59 14 °C 11 °C 1012.5 hPa W 17 km/h 14 km/h 84% 0 mm 0 W/m2
01:04 14 °C 11 °C 1012.46 hPa WNW 17 km/h 16 km/h 84% 0 mm 0 W/m2
01:09 14 °C 11 °C 1012.43 hPa NW 16 km/h 11 km/h 84% 0 mm 0 W/m2
01:14 14 °C 11 °C 1012.43 hPa WSW 16 km/h 14 km/h 84% 0 mm 0 W/m2
01:19 13 °C 11 °C 1012.39 hPa WNW 15 km/h 12 km/h 85% 0 mm 0 W/m2
01:24 13 °C 11 °C 1012.36 hPa WNW 19 km/h 15 km/h 85% 0 mm 0 W/m2
01:29 13 °C 11 °C 1012.29 hPa WNW 17 km/h 13 km/h 84% 0 mm 0 W/m2
01:34 13 °C 11 °C 1012.29 hPa WNW 18 km/h 12 km/h 84% 0 mm 0 W/m2
01:39 13 °C 11 °C 1012.26 hPa WNW 21 km/h 16 km/h 84% 0 mm 0 W/m2
01:44 13 °C 10 °C 1012.23 hPa WNW 20 km/h 17 km/h 83% 0 mm 0 W/m2
01:49 13 °C 10 °C 1012.23 hPa WNW 16 km/h 12 km/h 83% 0 mm 0 W/m2
01:54 13 °C 10 °C 1012.06 hPa WNW 25 km/h 17 km/h 83% 0 mm 0 W/m2
01:59 13 °C 10 °C 1011.99 hPa WNW 13 km/h 10 km/h 83% 0 mm 0 W/m2
02:04 13 °C 10 °C 1011.95 hPa W 13 km/h 10 km/h 83% 0 mm 0 W/m2
02:09 13 °C 10 °C 1011.95 hPa WNW 18 km/h 16 km/h 82% 0 mm 0 W/m2
02:14 13 °C 10 °C 1011.89 hPa WNW 24 km/h 21 km/h 81% 0 mm 0 W/m2
02:19 13 °C 10 °C 1011.85 hPa WNW 13 km/h 9 km/h 81% 0 mm 0 W/m2
02:24 13 °C 10 °C 1011.85 hPa W 15 km/h 9 km/h 82% 0 mm 0 W/m2
02:29 13 °C 10 °C 1011.82 hPa W 14 km/h 10 km/h 82% 0 mm 0 W/m2
02:34 13 °C 10 °C 1011.79 hPa W 18 km/h 12 km/h 82% 0 mm 0 W/m2
02:39 13 °C 10 °C 1011.75 hPa W 16 km/h 13 km/h 82% 0 mm 0 W/m2
02:44 13 °C 10 °C 1011.72 hPa W 16 km/h 11 km/h 82% 0 mm 0 W/m2
02:49 13 °C 10 °C 1011.72 hPa WSW 15 km/h 12 km/h 82% 0 mm 0 W/m2
02:54 13 °C 10 °C 1011.79 hPa WNW 15 km/h 9 km/h 82% 0 mm 0 W/m2
02:59 13 °C 10 °C 1011.79 hPa WNW 15 km/h 14 km/h 82% 0 mm 0 W/m2
03:04 13 °C 10 °C 1011.79 hPa WNW 18 km/h 16 km/h 82% 0 mm 0 W/m2
03:09 13 °C 10 °C 1011.79 hPa WNW 18 km/h 15 km/h 82% 0 mm 0 W/m2
03:14 13 °C 10 °C 1011.68 hPa W 18 km/h 14 km/h 82% 0 mm 0 W/m2
03:19 13 °C 10 °C 1011.65 hPa W 19 km/h 13 km/h 82% 0 mm 0 W/m2
03:24 13 °C 10 °C 1011.55 hPa WNW 19 km/h 14 km/h 82% 0 mm 0 W/m2
03:29 13 °C 10 °C 1011.58 hPa W 24 km/h 17 km/h 82% 0 mm 0 W/m2
03:34 13 °C 10 °C 1011.62 hPa WNW 18 km/h 11 km/h 82% 0 mm 0 W/m2
03:39 13 °C 10 °C 1011.62 hPa W 21 km/h 17 km/h 82% 0 mm 0 W/m2
03:44 13 °C 10 °C 1011.58 hPa WNW 20 km/h 14 km/h 82% 0 mm 0 W/m2
03:49 13 °C 10 °C 1011.62 hPa W 18 km/h 14 km/h 82% 0 mm 0 W/m2
03:54 13 °C 10 °C 1011.65 hPa W 13 km/h 10 km/h 82% 0 mm 0 W/m2
03:59 13 °C 10 °C 1011.68 hPa WNW 16 km/h 12 km/h 82% 0 mm 0 W/m2
04:04 13 °C 9 °C 1011.72 hPa W 17 km/h 13 km/h 81% 0 mm 0 W/m2
04:09 13 °C 9 °C 1011.68 hPa WNW 16 km/h 11 km/h 81% 0 mm 0 W/m2
04:14 13 °C 9 °C 1011.68 hPa WNW 14 km/h 11 km/h 80% 0 mm 0 W/m2
04:19 13 °C 9 °C 1011.75 hPa W 14 km/h 12 km/h 80% 0 mm 0 W/m2
04:24 13 °C 9 °C 1011.68 hPa W 14 km/h 9 km/h 80% 0 mm 0 W/m2
04:29 13 °C 9 °C 1011.58 hPa W 11 km/h 10 km/h 80% 0 mm 0 W/m2
04:34 13 °C 9 °C 1011.55 hPa WSW 15 km/h 9 km/h 79% 0 mm 0 W/m2
04:39 13 °C 9 °C 1011.45 hPa WSW 16 km/h 10 km/h 79% 0 mm 0 W/m2
04:44 13 °C 9 °C 1011.45 hPa W 19 km/h 15 km/h 78% 0 mm 0 W/m2
04:49 13 °C 9 °C 1011.45 hPa W 14 km/h 10 km/h 78% 0 mm 5 W/m2
04:54 13 °C 9 °C 1011.38 hPa W 15 km/h 12 km/h 77% 0 mm 5 W/m2
04:59 13 °C 9 °C 1011.31 hPa W 16 km/h 12 km/h 77% 0 mm 7 W/m2
05:04 13 °C 9 °C 1011.28 hPa W 15 km/h 10 km/h 77% 0 mm 9 W/m2
05:09 12 °C 9 °C 1011.24 hPa WSW 14 km/h 10 km/h 77% 0 mm 12 W/m2
05:14 12 °C 8 °C 1011.21 hPa W 14 km/h 9 km/h 77% 0 mm 25 W/m2
05:19 12 °C 8 °C 1011.14 hPa W 16 km/h 12 km/h 77% 0 mm 33 W/m2
05:24 12 °C 8 °C 1011.14 hPa W 17 km/h 13 km/h 77% 0 mm 39 W/m2
05:29 12 °C 9 °C 1011.11 hPa W 14 km/h 10 km/h 77% 0 mm 40 W/m2
05:34 12 °C 9 °C 1011.14 hPa WNW 18 km/h 13 km/h 78% 0 mm 26 W/m2
05:39 12 °C 9 °C 1011.14 hPa W 11 km/h 9 km/h 78% 0 mm 18 W/m2
05:44 12 °C 9 °C 1011.18 hPa WNW 14 km/h 10 km/h 79% 0 mm 19 W/m2
05:49 12 °C 9 °C 1011.18 hPa W 16 km/h 12 km/h 79% 0 mm 23 W/m2
05:54 12 °C 9 °C 1011.21 hPa W 12 km/h 9 km/h 80% 0 mm 84 W/m2
05:59 12 °C 9 °C 1011.24 hPa WNW 13 km/h 11 km/h 81% 0 mm 86 W/m2
06:04 12 °C 9 °C 1011.24 hPa W 14 km/h 10 km/h 80% 0 mm 102 W/m2
06:09 13 °C 9 °C 1011.31 hPa W 12 km/h 8 km/h 80% 0 mm 105 W/m2
06:14 13 °C 9 °C 1011.38 hPa WSW 15 km/h 10 km/h 80% 0 mm 84 W/m2
06:19 13 °C 9 °C 1011.38 hPa W 15 km/h 10 km/h 80% 0 mm 40 W/m2
06:24 12 °C 9 °C 1011.41 hPa W 18 km/h 13 km/h 80% 0 mm 37 W/m2
06:29 12 °C 9 °C 1011.34 hPa WNW 11 km/h 7 km/h 80% 0 mm 54 W/m2
06:34 12 °C 9 °C 1011.31 hPa W 11 km/h 9 km/h 80% 0 mm 60 W/m2
06:39 13 °C 9 °C 1011.31 hPa SW 9 km/h 8 km/h 80% 0 mm 165 W/m2
06:44 13 °C 9 °C 1011.38 hPa W 14 km/h 10 km/h 79% 0 mm 172 W/m2
06:49 13 °C 9 °C 1011.45 hPa W 14 km/h 10 km/h 78% 0 mm 186 W/m2
06:54 13 °C 9 °C 1011.48 hPa WSW 11 km/h 9 km/h 78% 0 mm 199 W/m2
06:59 13 °C 9 °C 1011.45 hPa WSW 10 km/h 10 km/h 78% 0 mm 90 W/m2
07:04 13 °C 9 °C 1011.38 hPa W 15 km/h 13 km/h 77% 0 mm 223 W/m2
07:09 13 °C 9 °C 1011.41 hPa WNW 15 km/h 12 km/h 78% 0 mm 271 W/m2
07:14 13 °C 9 °C 1011.48 hPa WNW 18 km/h 14 km/h 77% 0 mm 279 W/m2
07:19 13 °C 9 °C 1011.55 hPa WNW 15 km/h 14 km/h 76% 0 mm 213 W/m2
07:24 13 °C 9 °C 1011.58 hPa W 13 km/h 14 km/h 76% 0 mm 283 W/m2
07:29 13 °C 9 °C 1011.55 hPa WNW 15 km/h 11 km/h 77% 0 mm 178 W/m2
07:34 13 °C 9 °C 1011.55 hPa WNW 13 km/h 11 km/h 77% 0 mm 176 W/m2
07:39 13 °C 10 °C 1011.51 hPa W 13 km/h 9 km/h 78% 0 mm 137 W/m2
07:44 13 °C 10 °C 1011.45 hPa W 14 km/h 12 km/h 78% 0 mm 141 W/m2
07:49 13 °C 10 °C 1011.38 hPa WNW 15 km/h 9 km/h 78% 0 mm 158 W/m2
07:54 13 °C 10 °C 1011.31 hPa WSW 15 km/h 10 km/h 79% 0 mm 199 W/m2
07:59 13 °C 10 °C 1011.38 hPa WNW 16 km/h 12 km/h 79% 0 mm 213 W/m2
08:04 13 °C 10 °C 1011.38 hPa WNW 18 km/h 12 km/h 79% 0 mm 281 W/m2
08:09 14 °C 10 °C 1011.41 hPa WNW 14 km/h 9 km/h 78% 0 mm 241 W/m2
08:14 14 °C 10 °C 1011.34 hPa W 20 km/h 17 km/h 77% 0 mm 250 W/m2
08:19 14 °C 10 °C 1011.41 hPa WNW 20 km/h 14 km/h 76% 0 mm 211 W/m2
08:24 14 °C 10 °C 1011.51 hPa WNW 19 km/h 16 km/h 76% 0 mm 209 W/m2
08:29 14 °C 10 °C 1011.51 hPa WNW 19 km/h 18 km/h 76% 0 mm 225 W/m2
08:34 14 °C 9 °C 1011.48 hPa WNW 16 km/h 18 km/h 75% 0 mm 232 W/m2
08:39 14 °C 10 °C 1011.45 hPa WNW 19 km/h 14 km/h 76% 0 mm 323 W/m2
08:44 14 °C 10 °C 1011.45 hPa W 13 km/h 10 km/h 76% 0 mm 323 W/m2
08:49 14 °C 10 °C 1011.45 hPa WNW 14 km/h 11 km/h 75% 0 mm 202 W/m2
08:54 14 °C 10 °C 1011.45 hPa WNW 10 km/h 8 km/h 76% 0 mm 156 W/m2
08:59 14 °C 10 °C 1011.38 hPa WNW 13 km/h 13 km/h 76% 0 mm 151 W/m2
09:04 14 °C 10 °C 1011.31 hPa WNW 16 km/h 13 km/h 76% 0 mm 162 W/m2
09:09 14 °C 10 °C 1011.28 hPa WNW 19 km/h 14 km/h 76% 0 mm 178 W/m2
09:14 14 °C 10 °C 1011.21 hPa WNW 18 km/h 14 km/h 76% 0 mm 190 W/m2
09:19 14 °C 10 °C 1011.21 hPa WNW 21 km/h 17 km/h 76% 0 mm 190 W/m2
09:24 14 °C 10 °C 1011.21 hPa WNW 10 km/h 9 km/h 76% 0 mm 183 W/m2
09:29 14 °C 10 °C 1011.21 hPa W 15 km/h 9 km/h 76% 0 mm 158 W/m2
09:34 14 °C 10 °C 1011.21 hPa WSW 12 km/h 8 km/h 76% 0 mm 258 W/m2
09:39 14 °C 10 °C 1011.18 hPa WNW 11 km/h 10 km/h 76% 0 mm 550 W/m2
09:44 15 °C 10 °C 1011.04 hPa W 13 km/h 9 km/h 75% 0 mm 559 W/m2
09:49 15 °C 11 °C 1010.97 hPa WNW 17 km/h 10 km/h 74% 0 mm 564 W/m2
09:54 16 °C 11 °C 1011.01 hPa W 13 km/h 11 km/h 73% 0 mm 592 W/m2
09:59 16 °C 11 °C 1010.94 hPa WSW 20 km/h 13 km/h 71% 0 mm 594 W/m2
10:04 16 °C 11 °C 1010.84 hPa W 24 km/h 15 km/h 71% 0 mm 622 W/m2
10:09 16 °C 11 °C 1010.84 hPa W 20 km/h 13 km/h 71% 0 mm 650 W/m2
10:14 16 °C 11 °C 1010.84 hPa W 21 km/h 14 km/h 70% 0 mm 668 W/m2
10:19 16 °C 11 °C 1010.74 hPa WNW 15 km/h 10 km/h 70% 0 mm 742 W/m2
10:24 17 °C 11 °C 1010.7 hPa W 18 km/h 12 km/h 69% 0 mm 745 W/m2
10:29 17 °C 11 °C 1010.7 hPa W 14 km/h 13 km/h 69% 0 mm 745 W/m2
10:34 17 °C 11 °C 1010.63 hPa WNW 14 km/h 11 km/h 68% 0 mm 758 W/m2
10:39 17 °C 11 °C 1010.53 hPa WNW 17 km/h 13 km/h 68% 0 mm 758 W/m2
Compliments of Weather Underground - 2 mb